sensor_id;sensor_type;location;lat;lon;timestamp;temperature;humidity
67799;SHT30;54596;43.216;27.904;2022-09-29T00:00:56;17.64;89.83
67799;SHT30;54596;43.216;27.904;2022-09-29T00:03:22;17.63;89.94
67799;SHT30;54596;43.216;27.904;2022-09-29T00:05:49;17.63;89.70
67799;SHT30;54596;43.216;27.904;2022-09-29T00:08:16;17.61;89.61
67799;SHT30;54596;43.216;27.904;2022-09-29T00:10:41;17.64;89.69
67799;SHT30;54596;43.216;27.904;2022-09-29T00:13:07;17.64;89.54
67799;SHT30;54596;43.216;27.904;2022-09-29T00:15:32;17.57;90.06
67799;SHT30;54596;43.216;27.904;2022-09-29T00:17:58;17.59;89.81
67799;SHT30;54596;43.216;27.904;2022-09-29T00:20:24;17.55;90.20
67799;SHT30;54596;43.216;27.904;2022-09-29T00:22:50;17.57;90.13
67799;SHT30;54596;43.216;27.904;2022-09-29T00:25:16;17.51;90.08
67799;SHT30;54596;43.216;27.904;2022-09-29T00:27:42;17.59;90.04
67799;SHT30;54596;43.216;27.904;2022-09-29T00:30:08;17.57;90.16
67799;SHT30;54596;43.216;27.904;2022-09-29T00:32:34;17.57;90.16
67799;SHT30;54596;43.216;27.904;2022-09-29T00:34:59;17.60;90.00
67799;SHT30;54596;43.216;27.904;2022-09-29T00:37:25;17.59;89.96
67799;SHT30;54596;43.216;27.904;2022-09-29T00:39:50;17.57;90.07
67799;SHT30;54596;43.216;27.904;2022-09-29T00:42:19;17.55;90.30
67799;SHT30;54596;43.216;27.904;2022-09-29T00:45:18;17.50;90.48
67799;SHT30;54596;43.216;27.904;2022-09-29T00:47:48;17.53;90.15
67799;SHT30;54596;43.216;27.904;2022-09-29T00:50:26;17.46;90.51
67799;SHT30;54596;43.216;27.904;2022-09-29T00:52:58;17.44;90.56
67799;SHT30;54596;43.216;27.904;2022-09-29T00:55:34;17.42;90.16
67799;SHT30;54596;43.216;27.904;2022-09-29T00:58:07;17.33;90.18
67799;SHT30;54596;43.216;27.904;2022-09-29T01:00:36;17.35;90.22
67799;SHT30;54596;43.216;27.904;2022-09-29T01:03:07;17.33;90.09
67799;SHT30;54596;43.216;27.904;2022-09-29T01:05:44;17.30;90.39
67799;SHT30;54596;43.216;27.904;2022-09-29T01:08:39;17.26;90.26
67799;SHT30;54596;43.216;27.904;2022-09-29T01:11:08;17.29;89.98
67799;SHT30;54596;43.216;27.904;2022-09-29T01:13:34;17.27;89.92
67799;SHT30;54596;43.216;27.904;2022-09-29T01:16:00;17.32;90.02
67799;SHT30;54596;43.216;27.904;2022-09-29T01:18:25;17.39;89.97
67799;SHT30;54596;43.216;27.904;2022-09-29T01:21:04;17.47;89.75
67799;SHT30;54596;43.216;27.904;2022-09-29T01:31:39;17.66;89.24
67799;SHT30;54596;43.216;27.904;2022-09-29T01:42:30;17.71;89.39
67799;SHT30;54596;43.216;27.904;2022-09-29T01:45:25;17.77;89.44
67799;SHT30;54596;43.216;27.904;2022-09-29T01:47:55;17.82;89.49
67799;SHT30;54596;43.216;27.904;2022-09-29T01:50:27;17.84;89.41
67799;SHT30;54596;43.216;27.904;2022-09-29T01:52:59;17.84;89.44
67799;SHT30;54596;43.216;27.904;2022-09-29T01:55:29;17.88;89.23
67799;SHT30;54596;43.216;27.904;2022-09-29T01:58:04;17.85;89.26
67799;SHT30;54596;43.216;27.904;2022-09-29T02:00:35;17.91;89.28
67799;SHT30;54596;43.216;27.904;2022-09-29T02:03:24;17.92;89.25
67799;SHT30;54596;43.216;27.904;2022-09-29T02:05:55;17.94;88.90
67799;SHT30;54596;43.216;27.904;2022-09-29T02:08:31;17.92;88.69
67799;SHT30;54596;43.216;27.904;2022-09-29T02:11:04;17.98;88.51
67799;SHT30;54596;43.216;27.904;2022-09-29T02:16:40;17.99;88.74
67799;SHT30;54596;43.216;27.904;2022-09-29T02:19:10;17.92;88.93
67799;SHT30;54596;43.216;27.904;2022-09-29T02:21:39;17.95;89.07
67799;SHT30;54596;43.216;27.904;2022-09-29T02:24:05;17.87;89.49
67799;SHT30;54596;43.216;27.904;2022-09-29T02:26:32;17.84;89.77
67799;SHT30;54596;43.216;27.904;2022-09-29T02:29:03;17.77;89.74
67799;SHT30;54596;43.216;27.904;2022-09-29T02:31:30;17.74;89.74
67799;SHT30;54596;43.216;27.904;2022-09-29T02:33:56;17.69;90.21
67799;SHT30;54596;43.216;27.904;2022-09-29T02:36:44;17.63;90.40
67799;SHT30;54596;43.216;27.904;2022-09-29T02:39:39;17.64;90.15
67799;SHT30;54596;43.216;27.904;2022-09-29T02:42:31;17.61;90.19
67799;SHT30;54596;43.216;27.904;2022-09-29T02:50:38;17.46;90.88
67799;SHT30;54596;43.216;27.904;2022-09-29T03:01:07;17.30;91.48
67799;SHT30;54596;43.216;27.904;2022-09-29T03:03:32;17.30;91.55
67799;SHT30;54596;43.216;27.904;2022-09-29T03:05:58;17.27;91.92
67799;SHT30;54596;43.216;27.904;2022-09-29T03:08:24;17.23;92.01
67799;SHT30;54596;43.216;27.904;2022-09-29T03:10:49;17.26;91.98
67799;SHT30;54596;43.216;27.904;2022-09-29T03:13:15;17.29;92.28
67799;SHT30;54596;43.216;27.904;2022-09-29T03:15:40;17.32;92.44
67799;SHT30;54596;43.216;27.904;2022-09-29T03:18:06;17.29;92.67
67799;SHT30;54596;43.216;27.904;2022-09-29T03:20:32;17.29;92.74
67799;SHT30;54596;43.216;27.904;2022-09-29T03:22:58;17.26;92.93
67799;SHT30;54596;43.216;27.904;2022-09-29T03:25:24;17.27;92.82
67799;SHT30;54596;43.216;27.904;2022-09-29T03:27:50;17.22;93.03
67799;SHT30;54596;43.216;27.904;2022-09-29T03:30:17;17.15;93.30
67799;SHT30;54596;43.216;27.904;2022-09-29T03:32:43;17.15;93.00
67799;SHT30;54596;43.216;27.904;2022-09-29T03:35:09;17.09;92.80
67799;SHT30;54596;43.216;27.904;2022-09-29T03:37:35;16.95;93.44
67799;SHT30;54596;43.216;27.904;2022-09-29T03:40:01;16.89;93.47
67799;SHT30;54596;43.216;27.904;2022-09-29T03:42:27;16.84;93.82
67799;SHT30;54596;43.216;27.904;2022-09-29T03:44:53;16.81;93.59
67799;SHT30;54596;43.216;27.904;2022-09-29T03:47:19;16.84;93.26
67799;SHT30;54596;43.216;27.904;2022-09-29T03:49:44;16.81;93.29
67799;SHT30;54596;43.216;27.904;2022-09-29T03:52:10;16.78;93.50
67799;SHT30;54596;43.216;27.904;2022-09-29T03:54:35;16.77;93.26
67799;SHT30;54596;43.216;27.904;2022-09-29T03:57:01;16.80;93.41
67799;SHT30;54596;43.216;27.904;2022-09-29T03:59:26;16.85;93.54
67799;SHT30;54596;43.216;27.904;2022-09-29T04:01:52;16.88;93.41
67799;SHT30;54596;43.216;27.904;2022-09-29T04:04:18;16.89;93.48
67799;SHT30;54596;43.216;27.904;2022-09-29T04:06:46;16.89;93.49
67799;SHT30;54596;43.216;27.904;2022-09-29T04:09:12;16.89;93.36
67799;SHT30;54596;43.216;27.904;2022-09-29T04:11:38;16.92;93.14
67799;SHT30;54596;43.216;27.904;2022-09-29T04:14:04;16.95;93.09
67799;SHT30;54596;43.216;27.904;2022-09-29T04:16:29;16.91;93.20
67799;SHT30;54596;43.216;27.904;2022-09-29T04:18:55;16.94;92.99
67799;SHT30;54596;43.216;27.904;2022-09-29T04:21:21;16.95;92.96
67799;SHT30;54596;43.216;27.904;2022-09-29T04:23:46;16.96;93.12
67799;SHT30;54596;43.216;27.904;2022-09-29T04:26:12;16.98;92.99
67799;SHT30;54596;43.216;27.904;2022-09-29T04:28:38;17.04;92.93
67799;SHT30;54596;43.216;27.904;2022-09-29T04:31:04;17.11;92.79
67799;SHT30;54596;43.216;27.904;2022-09-29T04:33:30;17.23;92.68
67799;SHT30;54596;43.216;27.904;2022-09-29T04:35:57;17.27;92.88
67799;SHT30;54596;43.216;27.904;2022-09-29T04:38:23;17.30;93.60
67799;SHT30;54596;43.216;27.904;2022-09-29T04:40:48;17.35;93.56
67799;SHT30;54596;43.216;27.904;2022-09-29T04:43:14;17.43;93.96
67799;SHT30;54596;43.216;27.904;2022-09-29T04:45:40;17.50;94.18
67799;SHT30;54596;43.216;27.904;2022-09-29T04:48:05;17.61;93.91
67799;SHT30;54596;43.216;27.904;2022-09-29T04:50:32;17.77;93.75
67799;SHT30;54596;43.216;27.904;2022-09-29T04:52:57;17.88;93.42
67799;SHT30;54596;43.216;27.904;2022-09-29T04:55:23;17.92;93.54
67799;SHT30;54596;43.216;27.904;2022-09-29T04:57:48;18.04;93.53
67799;SHT30;54596;43.216;27.904;2022-09-29T05:00:14;18.05;93.65
67799;SHT30;54596;43.216;27.904;2022-09-29T05:02:40;18.10;94.03
67799;SHT30;54596;43.216;27.904;2022-09-29T05:05:06;18.17;93.85
67799;SHT30;54596;43.216;27.904;2022-09-29T05:07:37;18.30;93.71
67799;SHT30;54596;43.216;27.904;2022-09-29T05:10:05;18.36;93.55
67799;SHT30;54596;43.216;27.904;2022-09-29T05:12:30;18.46;93.30
67799;SHT30;54596;43.216;27.904;2022-09-29T05:14:56;18.57;92.82
67799;SHT30;54596;43.216;27.904;2022-09-29T05:17:21;18.65;92.62
67799;SHT30;54596;43.216;27.904;2022-09-29T05:19:47;18.72;91.96
67799;SHT30;54596;43.216;27.904;2022-09-29T05:22:12;18.81;91.50
67799;SHT30;54596;43.216;27.904;2022-09-29T05:24:38;18.91;90.94
67799;SHT30;54596;43.216;27.904;2022-09-29T05:27:03;19.16;90.12
67799;SHT30;54596;43.216;27.904;2022-09-29T05:29:29;19.30;89.24
67799;SHT30;54596;43.216;27.904;2022-09-29T05:31:54;19.70;88.08
67799;SHT30;54596;43.216;27.904;2022-09-29T05:34:20;19.91;87.48
67799;SHT30;54596;43.216;27.904;2022-09-29T05:36:45;20.40;86.40
67799;SHT30;54596;43.216;27.904;2022-09-29T05:39:11;20.81;84.45
67799;SHT30;54596;43.216;27.904;2022-09-29T05:41:37;21.79;81.89
67799;SHT30;54596;43.216;27.904;2022-09-29T05:44:03;21.79;81.39
67799;SHT30;54596;43.216;27.904;2022-09-29T05:46:29;21.92;81.29
67799;SHT30;54596;43.216;27.904;2022-09-29T05:48:54;22.17;80.79
67799;SHT30;54596;43.216;27.904;2022-09-29T05:51:23;24.06;74.76
67799;SHT30;54596;43.216;27.904;2022-09-29T05:53:49;25.57;69.86
67799;SHT30;54596;43.216;27.904;2022-09-29T05:56:17;26.82;66.72
67799;SHT30;54596;43.216;27.904;2022-09-29T05:58:45;27.89;62.59
67799;SHT30;54596;43.216;27.904;2022-09-29T06:01:19;29.27;59.46
67799;SHT30;54596;43.216;27.904;2022-09-29T06:03:45;30.78;55.84
67799;SHT30;54596;43.216;27.904;2022-09-29T06:06:36;31.83;53.81
67799;SHT30;54596;43.216;27.904;2022-09-29T06:09:05;32.50;51.48
67799;SHT30;54596;43.216;27.904;2022-09-29T06:11:30;32.80;50.61
67799;SHT30;54596;43.216;27.904;2022-09-29T06:14:00;33.30;49.38
67799;SHT30;54596;43.216;27.904;2022-09-29T06:16:27;33.59;49.29
67799;SHT30;54596;43.216;27.904;2022-09-29T06:18:53;33.35;50.13
67799;SHT30;54596;43.216;27.904;2022-09-29T06:21:23;33.27;49.95
67799;SHT30;54596;43.216;27.904;2022-09-29T06:23:50;33.47;49.95
67799;SHT30;54596;43.216;27.904;2022-09-29T06:26:17;33.47;49.38
67799;SHT30;54596;43.216;27.904;2022-09-29T06:28:43;33.07;50.40
67799;SHT30;54596;43.216;27.904;2022-09-29T06:31:28;33.78;49.03
67799;SHT30;54596;43.216;27.904;2022-09-29T06:33:58;34.62;46.99
67799;SHT30;54596;43.216;27.904;2022-09-29T06:39:10;35.64;45.09
67799;SHT30;54596;43.216;27.904;2022-09-29T06:41:36;35.62;44.72
67799;SHT30;54596;43.216;27.904;2022-09-29T06:44:02;35.80;44.40
67799;SHT30;54596;43.216;27.904;2022-09-29T06:46:28;35.84;43.61
67799;SHT30;54596;43.216;27.904;2022-09-29T06:48:54;36.30;42.51
67799;SHT30;54596;43.216;27.904;2022-09-29T06:51:21;36.66;42.04
67799;SHT30;54596;43.216;27.904;2022-09-29T06:53:48;36.24;43.13
67799;SHT30;54596;43.216;27.904;2022-09-29T06:56:14;36.03;43.40
67799;SHT30;54596;43.216;27.904;2022-09-29T06:58:39;35.65;43.67
67799;SHT30;54596;43.216;27.904;2022-09-29T07:01:05;35.80;42.35
67799;SHT30;54596;43.216;27.904;2022-09-29T07:03:32;35.91;41.41
67799;SHT30;54596;43.216;27.904;2022-09-29T07:06:02;35.95;40.59
67799;SHT30;54596;43.216;27.904;2022-09-29T07:08:27;36.45;40.24
67799;SHT30;54596;43.216;27.904;2022-09-29T07:10:53;37.02;39.86
67799;SHT30;54596;43.216;27.904;2022-09-29T07:13:19;37.84;39.16
67799;SHT30;54596;43.216;27.904;2022-09-29T07:15:44;38.30;36.79
67799;SHT30;54596;43.216;27.904;2022-09-29T07:18:12;39.11;35.73
67799;SHT30;54596;43.216;27.904;2022-09-29T07:20:38;39.75;35.27
67799;SHT30;54596;43.216;27.904;2022-09-29T07:23:05;40.17;35.05
67799;SHT30;54596;43.216;27.904;2022-09-29T07:25:32;40.53;34.05
67799;SHT30;54596;43.216;27.904;2022-09-29T07:27:59;39.36;36.02
67799;SHT30;54596;43.216;27.904;2022-09-29T07:30:25;39.53;36.13
67799;SHT30;54596;43.216;27.904;2022-09-29T07:32:52;39.02;37.37
67799;SHT30;54596;43.216;27.904;2022-09-29T07:35:20;39.08;37.56
67799;SHT30;54596;43.216;27.904;2022-09-29T07:37:52;38.20;38.61
67799;SHT30;54596;43.216;27.904;2022-09-29T07:40:20;38.99;37.37
67799;SHT30;54596;43.216;27.904;2022-09-29T07:42:46;38.56;37.96
67799;SHT30;54596;43.216;27.904;2022-09-29T07:45:12;38.36;38.19
67799;SHT30;54596;43.216;27.904;2022-09-29T07:47:37;38.01;38.48
67799;SHT30;54596;43.216;27.904;2022-09-29T07:50:04;38.81;37.70
67799;SHT30;54596;43.216;27.904;2022-09-29T07:52:30;37.99;38.04
67799;SHT30;54596;43.216;27.904;2022-09-29T07:54:55;38.13;37.41
67799;SHT30;54596;43.216;27.904;2022-09-29T07:57:20;38.46;37.58
67799;SHT30;54596;43.216;27.904;2022-09-29T07:59:46;37.31;38.92
67799;SHT30;54596;43.216;27.904;2022-09-29T08:02:11;36.91;39.43
67799;SHT30;54596;43.216;27.904;2022-09-29T08:04:37;35.98;40.23
67799;SHT30;54596;43.216;27.904;2022-09-29T08:07:03;36.74;39.24
67799;SHT30;54596;43.216;27.904;2022-09-29T08:09:28;36.82;39.06
67799;SHT30;54596;43.216;27.904;2022-09-29T08:11:54;36.61;39.67
67799;SHT30;54596;43.216;27.904;2022-09-29T08:14:19;35.74;40.51
67799;SHT30;54596;43.216;27.904;2022-09-29T08:16:45;35.37;40.71
67799;SHT30;54596;43.216;27.904;2022-09-29T08:19:10;35.43;40.55
67799;SHT30;54596;43.216;27.904;2022-09-29T08:21:36;34.93;41.09
67799;SHT30;54596;43.216;27.904;2022-09-29T08:24:04;33.44;43.31
67799;SHT30;54596;43.216;27.904;2022-09-29T08:26:31;32.38;43.88
67799;SHT30;54596;43.216;27.904;2022-09-29T08:28:57;31.03;46.08
67799;SHT30;54596;43.216;27.904;2022-09-29T08:31:22;30.44;47.81
67799;SHT30;54596;43.216;27.904;2022-09-29T08:33:50;29.57;49.65
67799;SHT30;54596;43.216;27.904;2022-09-29T08:36:18;28.96;50.89
67799;SHT30;54596;43.216;27.904;2022-09-29T08:38:47;28.74;51.34
67799;SHT30;54596;43.216;27.904;2022-09-29T08:44:28;28.00;53.35
67799;SHT30;54596;43.216;27.904;2022-09-29T08:49:32;27.89;54.35
67799;SHT30;54596;43.216;27.904;2022-09-29T08:52:09;27.88;54.92
67799;SHT30;54596;43.216;27.904;2022-09-29T08:54:39;27.68;55.23
67799;SHT30;54596;43.216;27.904;2022-09-29T08:57:08;27.27;56.45
67799;SHT30;54596;43.216;27.904;2022-09-29T08:59:40;27.40;55.83
67799;SHT30;54596;43.216;27.904;2022-09-29T09:04:55;27.06;56.69
67799;SHT30;54596;43.216;27.904;2022-09-29T09:12:58;26.44;58.21
67799;SHT30;54596;43.216;27.904;2022-09-29T09:21:10;25.64;63.09
67799;SHT30;54596;43.216;27.904;2022-09-29T09:24:03;25.85;63.13
67799;SHT30;54596;43.216;27.904;2022-09-29T09:26:44;25.52;65.37
67799;SHT30;54596;43.216;27.904;2022-09-29T09:29:18;25.27;66.56
67799;SHT30;54596;43.216;27.904;2022-09-29T09:31:59;25.00;68.11
67799;SHT30;54596;43.216;27.904;2022-09-29T09:37:08;24.85;69.44
67799;SHT30;54596;43.216;27.904;2022-09-29T09:42:31;25.00;69.19
67799;SHT30;54596;43.216;27.904;2022-09-29T09:45:03;25.09;69.08
67799;SHT30;54596;43.216;27.904;2022-09-29T09:47:36;25.22;68.95
67799;SHT30;54596;43.216;27.904;2022-09-29T09:50:14;25.35;68.70
67799;SHT30;54596;43.216;27.904;2022-09-29T09:52:46;25.31;68.70
67799;SHT30;54596;43.216;27.904;2022-09-29T09:55:16;25.34;68.67
67799;SHT30;54596;43.216;27.904;2022-09-29T10:03:08;25.02;69.50
67799;SHT30;54596;43.216;27.904;2022-09-29T10:05:42;24.73;70.38
67799;SHT30;54596;43.216;27.904;2022-09-29T10:08:37;24.64;70.93
67799;SHT30;54596;43.216;27.904;2022-09-29T10:11:25;24.57;71.00
67799;SHT30;54596;43.216;27.904;2022-09-29T10:14:03;24.83;70.46
67799;SHT30;54596;43.216;27.904;2022-09-29T10:16:49;24.65;70.99
67799;SHT30;54596;43.216;27.904;2022-09-29T10:19:50;24.71;71.14
67799;SHT30;54596;43.216;27.904;2022-09-29T10:22:13;24.65;71.21
67799;SHT30;54596;43.216;27.904;2022-09-29T10:24:39;24.47;71.81
67799;SHT30;54596;43.216;27.904;2022-09-29T10:27:05;24.51;71.83
67799;SHT30;54596;43.216;27.904;2022-09-29T10:32:08;24.40;72.04
67799;SHT30;54596;43.216;27.904;2022-09-29T10:34:41;24.38;71.98
67799;SHT30;54596;43.216;27.904;2022-09-29T10:37:29;24.20;72.74
67799;SHT30;54596;43.216;27.904;2022-09-29T10:40:18;24.06;73.20
67799;SHT30;54596;43.216;27.904;2022-09-29T10:42:48;23.93;73.87
67799;SHT30;54596;43.216;27.904;2022-09-29T10:45:25;23.86;73.92
67799;SHT30;54596;43.216;27.904;2022-09-29T10:50:34;24.05;73.60
67799;SHT30;54596;43.216;27.904;2022-09-29T10:53:18;24.36;72.63
67799;SHT30;54596;43.216;27.904;2022-09-29T10:55:54;24.45;72.29
67799;SHT30;54596;43.216;27.904;2022-09-29T10:58:32;24.34;72.48
67799;SHT30;54596;43.216;27.904;2022-09-29T11:01:18;24.45;72.25
67799;SHT30;54596;43.216;27.904;2022-09-29T11:03:59;24.41;72.06
67799;SHT30;54596;43.216;27.904;2022-09-29T11:06:37;24.09;73.09
67799;SHT30;54596;43.216;27.904;2022-09-29T11:09:06;23.99;73.34
67799;SHT30;54596;43.216;27.904;2022-09-29T11:11:39;24.02;73.35
67799;SHT30;54596;43.216;27.904;2022-09-29T11:16:55;24.38;72.72
67799;SHT30;54596;43.216;27.904;2022-09-29T11:19:22;24.41;72.64
67799;SHT30;54596;43.216;27.904;2022-09-29T11:21:54;24.20;73.36
67799;SHT30;54596;43.216;27.904;2022-09-29T11:29:44;23.68;75.30
67799;SHT30;54596;43.216;27.904;2022-09-29T11:40:33;23.54;76.97
67799;SHT30;54596;43.216;27.904;2022-09-29T11:46:10;22.98;80.45
67799;SHT30;54596;43.216;27.904;2022-09-29T11:57:09;22.71;81.95
67799;SHT30;54596;43.216;27.904;2022-09-29T12:05:48;23.09;79.00
67799;SHT30;54596;43.216;27.904;2022-09-29T12:16:17;23.58;79.25
67799;SHT30;54596;43.216;27.904;2022-09-29T12:21:14;23.55;79.12
67799;SHT30;54596;43.216;27.904;2022-09-29T12:23:42;23.57;78.95
67799;SHT30;54596;43.216;27.904;2022-09-29T12:26:14;23.62;79.20
67799;SHT30;54596;43.216;27.904;2022-09-29T12:28:57;23.75;78.81
67799;SHT30;54596;43.216;27.904;2022-09-29T12:31:31;23.71;79.60
67799;SHT30;54596;43.216;27.904;2022-09-29T12:34:19;23.76;80.46
67799;SHT30;54596;43.216;27.904;2022-09-29T12:36:52;23.68;80.43
67799;SHT30;54596;43.216;27.904;2022-09-29T12:39:54;23.84;79.98
67799;SHT30;54596;43.216;27.904;2022-09-29T12:50:50;23.88;78.88
67799;SHT30;54596;43.216;27.904;2022-09-29T12:56:38;23.88;78.68
67799;SHT30;54596;43.216;27.904;2022-09-29T12:59:37;23.86;78.43
67799;SHT30;54596;43.216;27.904;2022-09-29T13:33:21;23.93;77.60
67799;SHT30;54596;43.216;27.904;2022-09-29T13:35:27;24.01;77.24
67799;SHT30;54596;43.216;27.904;2022-09-29T13:38:02;24.08;76.68
67799;SHT30;54596;43.216;27.904;2022-09-29T13:40:29;24.06;77.02
67799;SHT30;54596;43.216;27.904;2022-09-29T13:42:58;24.08;76.73
67799;SHT30;54596;43.216;27.904;2022-09-29T13:47:57;23.82;77.75
67799;SHT30;54596;43.216;27.904;2022-09-29T13:50:45;23.74;78.27
67799;SHT30;54596;43.216;27.904;2022-09-29T13:56:08;23.37;79.62
67799;SHT30;54596;43.216;27.904;2022-09-29T13:58:59;23.33;79.99
67799;SHT30;54596;43.216;27.904;2022-09-29T14:01:35;23.15;82.74
67799;SHT30;54596;43.216;27.904;2022-09-29T14:07:05;22.82;86.01
67799;SHT30;54596;43.216;27.904;2022-09-29T14:09:35;22.61;86.21
67799;SHT30;54596;43.216;27.904;2022-09-29T14:12:07;22.57;85.87
67799;SHT30;54596;43.216;27.904;2022-09-29T14:14:38;22.54;86.46
67799;SHT30;54596;43.216;27.904;2022-09-29T14:17:24;22.57;86.38
67799;SHT30;54596;43.216;27.904;2022-09-29T14:20:13;22.50;86.10
67799;SHT30;54596;43.216;27.904;2022-09-29T14:27:39;22.29;87.35
67799;SHT30;54596;43.216;27.904;2022-09-29T14:35:38;22.23;87.25
67799;SHT30;54596;43.216;27.904;2022-09-29T14:40:34;22.24;87.51
67799;SHT30;54596;43.216;27.904;2022-09-29T14:43:24;22.21;87.53
67799;SHT30;54596;43.216;27.904;2022-09-29T14:46:07;22.21;87.42
67799;SHT30;54596;43.216;27.904;2022-09-29T14:55:03;22.16;87.07
67799;SHT30;54596;43.216;27.904;2022-09-29T14:58:01;22.17;87.17
67799;SHT30;54596;43.216;27.904;2022-09-29T15:01:30;22.16;87.31
67799;SHT30;54596;43.216;27.904;2022-09-29T15:03:45;22.13;87.35
67799;SHT30;54596;43.216;27.904;2022-09-29T15:06:12;22.16;87.44
67799;SHT30;54596;43.216;27.904;2022-09-29T15:08:39;22.14;87.28
67799;SHT30;54596;43.216;27.904;2022-09-29T15:11:25;22.13;87.56
67799;SHT30;54596;43.216;27.904;2022-09-29T15:13:53;22.14;87.65
67799;SHT30;54596;43.216;27.904;2022-09-29T15:19:24;22.13;87.81
67799;SHT30;54596;43.216;27.904;2022-09-29T15:27:34;22.12;86.92
67799;SHT30;54596;43.216;27.904;2022-09-29T15:30:01;22.10;87.45
67799;SHT30;54596;43.216;27.904;2022-09-29T15:32:29;22.10;86.99
67799;SHT30;54596;43.216;27.904;2022-09-29T15:35:06;22.12;86.38
67799;SHT30;54596;43.216;27.904;2022-09-29T15:40:22;22.17;86.46
67799;SHT30;54596;43.216;27.904;2022-09-29T15:42:49;22.16;86.74
67799;SHT30;54596;43.216;27.904;2022-09-29T15:45:22;22.13;86.43
67799;SHT30;54596;43.216;27.904;2022-09-29T15:47:58;22.12;87.04
67799;SHT30;54596;43.216;27.904;2022-09-29T15:50:25;22.12;86.54
67799;SHT30;54596;43.216;27.904;2022-09-29T15:52:51;22.17;86.55
67799;SHT30;54596;43.216;27.904;2022-09-29T15:55:20;22.17;86.84
67799;SHT30;54596;43.216;27.904;2022-09-29T15:57:47;22.16;87.84
67799;SHT30;54596;43.216;27.904;2022-09-29T16:05:25;22.10;87.33
67799;SHT30;54596;43.216;27.904;2022-09-29T16:10:32;22.05;86.37
67799;SHT30;54596;43.216;27.904;2022-09-29T16:13:01;22.02;86.77
67799;SHT30;54596;43.216;27.904;2022-09-29T16:15:46;21.99;86.68
67799;SHT30;54596;43.216;27.904;2022-09-29T16:18:27;21.96;87.31
67799;SHT30;54596;43.216;27.904;2022-09-29T16:20:53;21.92;86.29
67799;SHT30;54596;43.216;27.904;2022-09-29T16:23:26;21.93;86.49
67799;SHT30;54596;43.216;27.904;2022-09-29T16:28:40;21.85;86.23
67799;SHT30;54596;43.216;27.904;2022-09-29T16:31:23;21.81;86.12
67799;SHT30;54596;43.216;27.904;2022-09-29T16:33:55;21.75;87.66
67799;SHT30;54596;43.216;27.904;2022-09-29T16:36:28;21.73;87.59
67799;SHT30;54596;43.216;27.904;2022-09-29T16:39:02;21.71;86.96
67799;SHT30;54596;43.216;27.904;2022-09-29T16:49:37;21.50;87.62
67799;SHT30;54596;43.216;27.904;2022-09-29T16:52:14;21.51;87.83
67799;SHT30;54596;43.216;27.904;2022-09-29T16:54:43;21.46;88.23
67799;SHT30;54596;43.216;27.904;2022-09-29T16:59:35;21.43;87.70
67799;SHT30;54596;43.216;27.904;2022-09-29T17:02:00;21.39;87.31
67799;SHT30;54596;43.216;27.904;2022-09-29T17:04:26;21.34;87.63
67799;SHT30;54596;43.216;27.904;2022-09-29T17:06:51;21.31;87.75
67799;SHT30;54596;43.216;27.904;2022-09-29T17:09:19;21.30;87.60
67799;SHT30;54596;43.216;27.904;2022-09-29T17:11:45;21.26;87.57
67799;SHT30;54596;43.216;27.904;2022-09-29T17:14:12;21.24;87.70
67799;SHT30;54596;43.216;27.904;2022-09-29T17:16:38;21.23;88.00
67799;SHT30;54596;43.216;27.904;2022-09-29T17:19:08;21.20;88.12
67799;SHT30;54596;43.216;27.904;2022-09-29T17:21:34;21.18;88.14
67799;SHT30;54596;43.216;27.904;2022-09-29T17:24:00;21.13;88.14
67799;SHT30;54596;43.216;27.904;2022-09-29T17:26:50;21.13;88.13
67799;SHT30;54596;43.216;27.904;2022-09-29T17:29:34;21.14;87.75
67799;SHT30;54596;43.216;27.904;2022-09-29T17:32:00;21.16;87.50
67799;SHT30;54596;43.216;27.904;2022-09-29T17:34:27;21.09;87.73
67799;SHT30;54596;43.216;27.904;2022-09-29T17:36:57;21.05;87.73
67799;SHT30;54596;43.216;27.904;2022-09-29T17:39:26;21.03;88.12
67799;SHT30;54596;43.216;27.904;2022-09-29T17:41:52;21.03;87.98
67799;SHT30;54596;43.216;27.904;2022-09-29T17:44:17;20.99;88.18
67799;SHT30;54596;43.216;27.904;2022-09-29T17:46:43;20.98;88.90
67799;SHT30;54596;43.216;27.904;2022-09-29T17:49:11;20.92;88.53
67799;SHT30;54596;43.216;27.904;2022-09-29T17:51:36;20.91;88.80
67799;SHT30;54596;43.216;27.904;2022-09-29T17:54:02;20.89;88.63
67799;SHT30;54596;43.216;27.904;2022-09-29T17:56:29;20.92;88.49
67799;SHT30;54596;43.216;27.904;2022-09-29T17:59:02;20.91;88.29
67799;SHT30;54596;43.216;27.904;2022-09-29T18:01:30;20.84;89.27
67799;SHT30;54596;43.216;27.904;2022-09-29T18:03:59;20.77;89.69
67799;SHT30;54596;43.216;27.904;2022-09-29T18:06:25;20.74;89.83
67799;SHT30;54596;43.216;27.904;2022-09-29T18:08:52;20.77;89.60
67799;SHT30;54596;43.216;27.904;2022-09-29T18:11:19;20.78;88.98
67799;SHT30;54596;43.216;27.904;2022-09-29T18:13:46;20.71;89.48
67799;SHT30;54596;43.216;27.904;2022-09-29T18:16:13;20.68;89.20
67799;SHT30;54596;43.216;27.904;2022-09-29T18:18:39;20.64;90.10
67799;SHT30;54596;43.216;27.904;2022-09-29T18:21:05;20.60;90.28
67799;SHT30;54596;43.216;27.904;2022-09-29T18:23:31;20.54;90.34
67799;SHT30;54596;43.216;27.904;2022-09-29T18:25:56;20.57;88.99
67799;SHT30;54596;43.216;27.904;2022-09-29T18:28:22;20.60;88.97
67799;SHT30;54596;43.216;27.904;2022-09-29T18:30:56;20.57;89.78
67799;SHT30;54596;43.216;27.904;2022-09-29T18:33:25;20.52;90.38
67799;SHT30;54596;43.216;27.904;2022-09-29T18:35:53;20.52;89.84
67799;SHT30;54596;43.216;27.904;2022-09-29T18:38:19;20.52;89.79
67799;SHT30;54596;43.216;27.904;2022-09-29T18:40:45;20.54;90.01
67799;SHT30;54596;43.216;27.904;2022-09-29T18:43:12;20.50;90.10
67799;SHT30;54596;43.216;27.904;2022-09-29T18:45:38;20.41;89.91
67799;SHT30;54596;43.216;27.904;2022-09-29T18:48:09;20.45;87.41
67799;SHT30;54596;43.216;27.904;2022-09-29T18:50:38;20.51;87.58
67799;SHT30;54596;43.216;27.904;2022-09-29T18:53:08;20.51;88.42
67799;SHT30;54596;43.216;27.904;2022-09-29T18:55:34;20.44;88.91
67799;SHT30;54596;43.216;27.904;2022-09-29T18:58:00;20.37;89.38
67799;SHT30;54596;43.216;27.904;2022-09-29T19:00:29;20.36;89.48
67799;SHT30;54596;43.216;27.904;2022-09-29T19:02:56;20.34;89.68
67799;SHT30;54596;43.216;27.904;2022-09-29T19:05:24;20.34;89.63
67799;SHT30;54596;43.216;27.904;2022-09-29T19:07:55;20.33;89.31
67799;SHT30;54596;43.216;27.904;2022-09-29T19:10:23;20.30;88.50
67799;SHT30;54596;43.216;27.904;2022-09-29T19:12:49;20.26;88.68